createdAt,value
2022-11-27T00:03:51.421Z,37.13
2022-11-27T00:06:20.814Z,37.90
2022-11-27T00:08:48.378Z,37.25
2022-11-27T00:11:18.141Z,42.35
2022-11-27T00:13:46.109Z,44.42
2022-11-27T00:16:14.450Z,48.60
2022-11-27T00:18:43.385Z,45.60
2022-11-27T00:21:16.735Z,49.38
2022-11-27T00:23:44.140Z,42.13
2022-11-27T00:26:11.732Z,37.13
2022-11-27T00:28:39.229Z,39.33
2022-11-27T00:31:12.423Z,50.08
2022-11-27T00:33:39.768Z,49.47
2022-11-27T00:36:08.206Z,54.03
2022-11-27T00:38:38.951Z,56.17
2022-11-27T00:41:19.472Z,58.38
2022-11-27T00:43:46.959Z,61.85
2022-11-27T00:46:15.428Z,56.08
2022-11-27T00:48:43.236Z,59.15
2022-11-27T00:51:14.012Z,62.55
2022-11-27T00:53:41.166Z,65.65
2022-11-27T00:56:08.633Z,56.85
2022-11-27T00:58:35.805Z,55.33
2022-11-27T01:01:07.496Z,59.17
2022-11-27T01:03:35.707Z,54.63
2022-11-27T01:06:07.179Z,52.53
2022-11-27T01:08:34.725Z,56.53
2022-11-27T01:11:02.519Z,55.45
2022-11-27T01:13:32.531Z,56.83
2022-11-27T01:16:17.946Z,57.15
2022-11-27T01:18:46.833Z,66.53
2022-11-27T01:21:16.337Z,53.10
2022-11-27T01:23:43.678Z,50.92
2022-11-27T01:29:12.033Z,47.47
2022-11-27T01:31:39.283Z,43.53
2022-11-27T01:34:11.861Z,39.83
2022-11-27T01:36:38.972Z,37.97
2022-11-27T01:39:05.936Z,40.33
2022-11-27T01:41:39.990Z,38.88
2022-11-27T01:44:25.401Z,38.15
2022-11-27T01:47:00.536Z,41.78
2022-11-27T01:49:39.895Z,41.28
2022-11-27T01:52:24.279Z,42.53
2022-11-27T01:55:06.317Z,38.33
2022-11-27T01:57:43.966Z,46.95
2022-11-27T02:00:14.269Z,47.58
2022-11-27T02:02:42.402Z,48.95
2022-11-27T02:05:10.858Z,45.33
2022-11-27T02:07:38.240Z,45.15
2022-11-27T02:10:06.807Z,50.10
2022-11-27T02:12:56.648Z,48.38
2022-11-27T02:15:37.258Z,44.78
2022-11-27T02:18:07.110Z,44.78
2022-11-27T02:20:59.361Z,49.03
2022-11-27T02:23:52.285Z,43.53
2022-11-27T02:26:31.518Z,46.83
2022-11-27T02:31:45.874Z,40.92
2022-11-27T02:35:10.321Z,42.83
2022-11-27T02:37:46.762Z,43.80
2022-11-27T02:40:39.011Z,41.63
2022-11-27T02:43:11.618Z,48.00
2022-11-27T02:45:48.256Z,49.30
2022-11-27T02:48:18.414Z,42.65
2022-11-27T02:50:48.298Z,46.38
2022-11-27T02:53:21.203Z,45.50
2022-11-27T02:55:50.585Z,45.60
2022-11-27T02:58:22.154Z,46.33
2022-11-27T03:00:50.493Z,45.50
2022-11-27T03:03:22.273Z,47.05
2022-11-27T03:05:52.541Z,45.17
2022-11-27T03:08:39.127Z,45.03
2022-11-27T03:11:09.974Z,49.55
2022-11-27T03:13:47.246Z,49.40
2022-11-27T03:16:49.765Z,52.35
2022-11-27T03:19:19.547Z,45.25
2022-11-27T03:21:48.626Z,48.85
2022-11-27T03:24:15.609Z,49.22
2022-11-27T03:26:43.759Z,47.38
2022-11-27T03:29:36.608Z,52.60
2022-11-27T03:32:04.860Z,47.42
2022-11-27T03:34:32.721Z,45.58
2022-11-27T03:37:00.900Z,45.83
2022-11-27T03:39:29.617Z,44.90
2022-11-27T03:42:15.667Z,41.60
2022-11-27T03:44:53.629Z,44.10
2022-11-27T03:47:29.725Z,42.42
2022-11-27T03:50:09.024Z,47.60
2022-11-27T03:52:43.117Z,45.88
2022-11-27T03:55:25.861Z,45.13
2022-11-27T03:57:57.480Z,43.90
2022-11-27T04:00:33.100Z,42.03
2022-11-27T04:03:00.316Z,44.03
2022-11-27T04:05:27.254Z,43.00
2022-11-27T04:07:54.155Z,39.53
2022-11-27T04:10:21.697Z,41.72
2022-11-27T04:12:48.490Z,45.03
2022-11-27T04:15:15.502Z,41.40
2022-11-27T04:17:42.407Z,43.90
2022-11-27T04:20:12.802Z,42.42
2022-11-27T04:22:40.025Z,41.92
2022-11-27T04:25:07.228Z,44.53
2022-11-27T04:27:34.245Z,42.17
2022-11-27T04:30:01.239Z,38.83
2022-11-27T04:32:30.440Z,39.13
2022-11-27T04:34:57.359Z,45.63
2022-11-27T04:37:24.235Z,44.20
2022-11-27T04:39:51.182Z,44.47
2022-11-27T04:42:26.163Z,49.40
2022-11-27T04:44:58.106Z,45.00
2022-11-27T04:47:25.466Z,42.13
2022-11-27T04:49:52.450Z,42.15
2022-11-27T04:52:19.609Z,40.85
2022-11-27T04:54:46.562Z,43.47
2022-11-27T04:57:13.593Z,43.60
2022-11-27T04:59:41.197Z,44.30
2022-11-27T05:02:08.253Z,48.80
2022-11-27T05:04:35.228Z,45.85
2022-11-27T05:07:02.144Z,45.97
2022-11-27T05:09:29.102Z,40.55
2022-11-27T05:11:56.177Z,45.22
2022-11-27T05:14:28.944Z,50.38
2022-11-27T05:16:58.592Z,46.70
2022-11-27T05:19:28.430Z,47.80
2022-11-27T05:21:56.382Z,47.83
2022-11-27T05:24:25.990Z,49.45
2022-11-27T05:26:53.083Z,48.15
2022-11-27T05:29:20.585Z,47.83
2022-11-27T05:31:47.926Z,43.33
2022-11-27T05:34:15.183Z,50.17
2022-11-27T05:36:42.796Z,47.08
2022-11-27T05:39:11.338Z,46.65
2022-11-27T05:41:41.307Z,49.07
2022-11-27T05:44:13.608Z,46.00
2022-11-27T05:46:43.863Z,45.75
2022-11-27T05:49:13.949Z,50.15
2022-11-27T05:51:43.270Z,46.63
2022-11-27T05:54:13.522Z,48.72
2022-11-27T05:56:40.394Z,43.60
2022-11-27T05:59:07.328Z,44.05
2022-11-27T06:01:34.445Z,47.67
2022-11-27T06:04:01.564Z,46.15
2022-11-27T06:06:28.628Z,45.83
2022-11-27T06:08:55.554Z,44.80
2022-11-27T06:11:22.954Z,45.33
2022-11-27T06:13:50.370Z,45.50
2022-11-27T06:16:22.934Z,44.78
2022-11-27T06:18:51.916Z,43.63
2022-11-27T06:21:20.087Z,44.20
2022-11-27T06:23:47.078Z,46.15
2022-11-27T06:26:20.714Z,44.70
2022-11-27T06:28:48.700Z,49.53
2022-11-27T06:31:20.755Z,41.25
2022-11-27T06:33:49.144Z,42.88
2022-11-27T06:36:17.506Z,44.83
2022-11-27T06:38:45.220Z,41.72
2022-11-27T06:41:15.297Z,45.47
2022-11-27T06:43:42.798Z,42.78
2022-11-27T06:46:15.482Z,43.20
2022-11-27T06:48:44.650Z,39.65
2022-11-27T06:51:14.265Z,43.85
2022-11-27T06:53:41.910Z,42.72
2022-11-27T06:56:20.148Z,45.45
2022-11-27T06:58:47.143Z,38.33
2022-11-27T07:01:16.610Z,43.97
2022-11-27T07:03:44.633Z,41.67
2022-11-27T07:06:15.426Z,38.45
2022-11-27T07:08:43.156Z,44.97
2022-11-27T07:11:19.353Z,44.35
2022-11-27T07:13:47.428Z,43.67
2022-11-27T07:16:15.424Z,49.97
2022-11-27T07:18:51.273Z,42.05
2022-11-27T07:21:18.145Z,41.03
2022-11-27T07:23:45.913Z,43.97
2022-11-27T07:26:15.421Z,44.78
2022-11-27T07:28:46.031Z,49.58
2022-11-27T07:31:21.067Z,45.10
2022-11-27T07:33:48.429Z,47.10
2022-11-27T07:36:25.080Z,43.55
2022-11-27T07:38:52.281Z,44.78
2022-11-27T07:41:19.152Z,48.03
2022-11-27T07:43:46.903Z,45.65
2022-11-27T07:46:24.488Z,43.85
2022-11-27T07:48:51.989Z,45.08
2022-11-27T07:51:20.797Z,43.30
2022-11-27T07:53:48.694Z,51.67
2022-11-27T07:56:16.874Z,46.60
2022-11-27T07:58:44.704Z,51.40
2022-11-27T08:01:18.692Z,50.08
2022-11-27T08:03:46.388Z,48.30
2022-11-27T08:06:15.976Z,49.08
2022-11-27T08:08:47.660Z,42.72
2022-11-27T08:11:24.668Z,45.33
2022-11-27T08:14:05.459Z,47.83
2022-11-27T08:16:35.012Z,46.25
2022-11-27T08:19:02.517Z,52.42
2022-11-27T08:21:30.082Z,45.10
2022-11-27T08:23:58.215Z,51.25
2022-11-27T08:26:27.640Z,45.15
2022-11-27T08:31:23.305Z,46.33
2022-11-27T08:33:50.712Z,47.22
2022-11-27T08:36:18.241Z,45.83
2022-11-27T08:38:46.560Z,50.95
2022-11-27T08:41:13.695Z,49.88
2022-11-27T08:43:40.829Z,56.38
2022-11-27T08:46:08.472Z,48.28
2022-11-27T08:48:35.650Z,53.35
2022-11-27T08:51:11.935Z,56.00
2022-11-27T08:53:39.485Z,54.28
2022-11-27T08:56:13.924Z,56.20
2022-11-27T08:58:41.291Z,54.30
2022-11-27T09:01:11.003Z,56.35
2022-11-27T09:03:38.717Z,63.28
2022-11-27T09:06:11.117Z,62.30
2022-11-27T09:08:39.721Z,56.33
2022-11-27T09:11:07.388Z,61.67
2022-11-27T09:13:37.173Z,63.55
2022-11-27T09:16:05.776Z,69.85
2022-11-27T09:18:33.340Z,70.77
2022-11-27T09:21:02.696Z,71.60
2022-11-27T09:23:30.146Z,65.53
2022-11-27T09:26:05.093Z,61.88
2022-11-27T09:28:33.262Z,70.55
2022-11-27T09:31:02.021Z,63.53
2022-11-27T09:33:30.860Z,61.88
2022-11-27T09:35:57.997Z,56.95
2022-11-27T09:38:25.066Z,55.10
2022-11-27T09:41:00.412Z,53.75
2022-11-27T09:43:34.581Z,57.30
2022-11-27T09:46:09.322Z,55.13
2022-11-27T09:48:42.533Z,94.80
2022-11-27T09:51:20.059Z,64.60
2022-11-27T09:53:58.665Z,73.88
2022-11-27T09:56:35.218Z,64.78
2022-11-27T09:59:08.709Z,54.50
2022-11-27T10:01:46.203Z,57.72
2022-11-27T10:04:19.049Z,59.10
2022-11-27T10:07:07.167Z,59.03
2022-11-27T10:09:55.431Z,59.13
2022-11-27T10:12:40.735Z,54.10
2022-11-27T10:15:13.947Z,46.40
2022-11-27T10:17:53.821Z,60.80
2022-11-27T10:20:47.669Z,54.53
2022-11-27T10:23:14.557Z,50.70
2022-11-27T10:25:47.972Z,54.85
2022-11-27T10:28:30.266Z,52.17
2022-11-27T10:31:11.838Z,47.05
2022-11-27T10:33:45.182Z,48.80
2022-11-27T10:36:19.085Z,46.00
2022-11-27T10:38:48.284Z,51.60
2022-11-27T10:44:30.866Z,50.28
2022-11-27T10:47:15.425Z,46.63
2022-11-27T10:50:01.898Z,51.85
2022-11-27T10:52:30.935Z,52.45
2022-11-27T10:55:02.671Z,51.85
2022-11-27T10:57:44.134Z,52.40
2022-11-27T11:00:28.266Z,50.55
2022-11-27T11:03:04.201Z,47.53
2022-11-27T11:05:45.500Z,44.92
2022-11-27T11:08:21.383Z,47.30
2022-11-27T11:10:59.908Z,50.70
2022-11-27T11:13:32.381Z,52.88
2022-11-27T11:15:59.391Z,47.33
2022-11-27T11:18:32.426Z,42.28
2022-11-27T11:21:03.012Z,42.88
2022-11-27T11:23:36.247Z,41.55
2022-11-27T11:26:14.687Z,38.67
2022-11-27T11:28:50.620Z,37.10
2022-11-27T11:31:21.284Z,40.17
2022-11-27T11:34:21.053Z,35.78
2022-11-27T11:37:04.426Z,32.47
2022-11-27T11:39:44.529Z,31.95
2022-11-27T11:42:23.637Z,28.48
2022-11-27T11:45:04.347Z,28.40
2022-11-27T11:47:31.807Z,31.30
2022-11-27T11:49:59.287Z,28.48
2022-11-27T11:52:59.617Z,30.65
2022-11-27T11:55:34.677Z,25.35
2022-11-27T11:58:31.103Z,28.17
2022-11-27T12:01:26.559Z,30.23
2022-11-27T12:04:18.952Z,30.83
2022-11-27T12:07:07.846Z,25.40
2022-11-27T12:10:06.221Z,28.00
2022-11-27T12:12:57.024Z,30.70
2022-11-27T12:15:46.582Z,29.58
2022-11-27T12:18:41.665Z,27.63
2022-11-27T12:21:17.993Z,28.90
2022-11-27T12:23:57.964Z,28.50
2022-11-27T12:26:37.119Z,27.27
2022-11-27T12:29:38.567Z,24.60
2022-11-27T12:32:28.457Z,39.60
2022-11-27T12:35:24.754Z,26.83
2022-11-27T12:38:22.790Z,28.77
2022-11-27T12:41:27.361Z,25.60
2022-11-27T12:44:00.132Z,28.77
2022-11-27T12:46:27.164Z,27.75
2022-11-27T12:49:03.731Z,28.23
2022-11-27T12:51:43.412Z,29.40
2022-11-27T12:56:49.792Z,34.58
2022-11-27T12:59:23.292Z,29.58
2022-11-27T13:02:01.732Z,28.27
2022-11-27T13:05:02.649Z,29.43
2022-11-27T13:07:53.796Z,31.75
2022-11-27T13:10:32.088Z,30.65
2022-11-27T13:13:34.303Z,32.55
2022-11-27T13:16:07.673Z,32.90
2022-11-27T13:18:43.964Z,30.80
2022-11-27T13:21:17.419Z,33.58
2022-11-27T13:23:44.794Z,32.95
2022-11-27T13:26:26.657Z,34.83
2022-11-27T13:28:59.425Z,33.42
2022-11-27T13:31:31.726Z,32.60
2022-11-27T13:34:02.580Z,32.17
2022-11-27T13:37:02.048Z,32.00
2022-11-27T13:39:35.447Z,29.52
2022-11-27T13:42:11.774Z,28.40
2022-11-27T13:44:44.320Z,28.50
2022-11-27T13:47:16.726Z,29.13
2022-11-27T13:49:43.938Z,33.70
2022-11-27T13:52:14.304Z,30.20
2022-11-27T13:55:07.764Z,30.63
2022-11-27T13:57:34.945Z,27.77
2022-11-27T14:00:12.140Z,30.65
2022-11-27T14:02:44.836Z,30.08
2022-11-27T14:05:18.518Z,31.70
2022-11-27T14:07:51.991Z,27.85
2022-11-27T14:10:24.676Z,26.95
2022-11-27T14:13:08.593Z,28.90
2022-11-27T14:15:37.752Z,27.40
2022-11-27T14:18:17.990Z,29.58
2022-11-27T14:20:52.508Z,25.33
2022-11-27T14:23:48.160Z,22.90
2022-11-27T14:26:15.660Z,30.20
2022-11-27T14:28:45.377Z,25.08
2022-11-27T14:31:28.773Z,24.40
2022-11-27T14:36:43.839Z,22.08
2022-11-27T14:39:24.034Z,22.48
2022-11-27T14:42:05.688Z,22.27
2022-11-27T14:44:33.221Z,21.98
2022-11-27T14:47:06.763Z,22.77
2022-11-27T14:49:34.917Z,23.45
2022-11-27T14:52:06.835Z,25.05
2022-11-27T14:54:39.301Z,23.02
2022-11-27T14:57:11.107Z,25.27
2022-11-27T14:59:40.048Z,25.17
2022-11-27T15:02:07.317Z,18.48
2022-11-27T15:04:39.807Z,20.48
2022-11-27T15:07:18.783Z,16.73
2022-11-27T15:09:49.913Z,17.60
2022-11-27T15:12:21.302Z,18.00
2022-11-27T15:15:00.199Z,19.02
2022-11-27T15:17:34.284Z,13.75
2022-11-27T15:20:04.195Z,14.15
2022-11-27T15:22:33.423Z,12.63
2022-11-27T15:25:06.058Z,13.70
2022-11-27T15:27:45.564Z,12.07
2022-11-27T15:30:18.066Z,12.45
2022-11-27T15:32:51.667Z,16.05
2022-11-27T15:35:29.259Z,12.85
2022-11-27T15:37:58.146Z,11.85
2022-11-27T15:40:28.499Z,14.55
2022-11-27T15:42:55.399Z,10.70
2022-11-27T15:45:23.388Z,12.32
2022-11-27T15:47:58.210Z,14.85
2022-11-27T15:50:25.376Z,20.17
2022-11-27T15:52:52.521Z,15.68
2022-11-27T15:55:19.847Z,14.30
2022-11-27T15:57:47.079Z,14.15
2022-11-27T16:00:15.103Z,15.52
2022-11-27T16:02:42.315Z,19.60
2022-11-27T16:05:09.484Z,15.13
2022-11-27T16:07:36.749Z,16.23
2022-11-27T16:10:04.061Z,17.95
2022-11-27T16:12:31.162Z,16.05
2022-11-27T16:14:59.417Z,15.35
2022-11-27T16:17:26.463Z,16.55
2022-11-27T16:19:53.601Z,15.90
2022-11-27T16:22:20.651Z,15.35
2022-11-27T16:24:47.618Z,16.13
2022-11-27T16:27:14.560Z,13.32
2022-11-27T16:29:41.725Z,16.67
2022-11-27T16:32:09.170Z,17.73
2022-11-27T16:34:37.004Z,15.45
2022-11-27T16:37:03.968Z,20.95
2022-11-27T16:39:31.327Z,14.10
2022-11-27T16:41:58.466Z,16.73
2022-11-27T16:44:25.706Z,15.95
2022-11-27T16:46:53.768Z,17.10
2022-11-27T16:49:21.888Z,17.65
2022-11-27T16:51:50.213Z,19.83
2022-11-27T16:54:18.553Z,19.30
2022-11-27T16:56:46.519Z,19.52
2022-11-27T16:59:15.083Z,22.17
2022-11-27T17:01:44.234Z,20.17
2022-11-27T17:04:20.099Z,25.25
2022-11-27T17:06:48.962Z,30.05
2022-11-27T17:09:16.592Z,24.33
2022-11-27T17:11:48.487Z,21.15
2022-11-27T17:14:16.434Z,23.80
2022-11-27T17:16:43.625Z,21.38
2022-11-27T17:19:15.567Z,18.90
2022-11-27T17:21:44.501Z,21.90
2022-11-27T17:24:15.214Z,19.33
2022-11-27T17:26:46.394Z,19.23
2022-11-27T17:29:16.869Z,19.63
2022-11-27T17:31:44.643Z,18.63
2022-11-27T17:34:14.224Z,20.50
2022-11-27T17:36:43.201Z,22.00
2022-11-27T17:39:15.196Z,21.33
2022-11-27T17:41:44.891Z,22.40
2022-11-27T17:46:40.001Z,19.73
2022-11-27T17:49:08.157Z,20.15
2022-11-27T17:51:36.705Z,17.75
2022-11-27T17:54:05.487Z,19.63
2022-11-27T17:56:33.719Z,19.88
2022-11-27T17:59:01.814Z,29.38
2022-11-27T18:01:30.657Z,22.25
2022-11-27T18:04:01.041Z,22.45
2022-11-27T18:06:30.624Z,16.25
2022-11-27T18:08:59.898Z,15.98
2022-11-27T18:11:29.864Z,16.67
2022-11-27T18:13:59.343Z,18.70
2022-11-27T18:16:30.391Z,17.67
2022-11-27T18:18:59.138Z,19.17
2022-11-27T18:21:27.335Z,20.13
2022-11-27T18:29:29.761Z,14.80
2022-11-27T18:31:56.849Z,17.23
2022-11-27T18:34:23.853Z,16.20
2022-11-27T18:36:50.983Z,11.88
2022-11-27T18:39:18.201Z,13.48
2022-11-27T18:41:45.308Z,14.68
2022-11-27T18:44:12.171Z,13.25
2022-11-27T18:46:39.645Z,12.25
2022-11-27T18:49:06.895Z,13.27
2022-11-27T18:51:33.910Z,10.95
2022-11-27T18:54:02.382Z,12.13
2022-11-27T18:56:30.930Z,15.98
2022-11-27T19:01:40.945Z,12.23
2022-11-27T19:04:10.619Z,11.32
2022-11-27T19:06:39.295Z,13.97
2022-11-27T19:09:06.902Z,13.02
2022-11-27T19:11:35.153Z,12.52
2022-11-27T19:14:03.909Z,12.43
2022-11-27T19:16:34.425Z,15.05
2022-11-27T19:19:03.457Z,20.10
2022-11-27T19:21:32.734Z,14.85
2022-11-27T19:24:02.580Z,14.50
2022-11-27T19:26:33.251Z,14.18
2022-11-27T19:29:03.656Z,15.57
2022-11-27T19:31:33.461Z,14.07
2022-11-27T19:34:02.355Z,16.60
2022-11-27T19:36:31.340Z,18.10
2022-11-27T19:39:03.429Z,16.95
2022-11-27T19:41:31.282Z,16.38
2022-11-27T19:44:01.695Z,17.08
2022-11-27T19:46:31.669Z,18.00
2022-11-27T19:49:04.792Z,17.70
2022-11-27T19:51:35.123Z,17.02
2022-11-27T19:54:09.675Z,21.58
2022-11-27T19:56:40.419Z,16.60
2022-11-27T19:59:08.721Z,19.08
2022-11-27T20:01:37.772Z,18.58
2022-11-27T20:04:05.672Z,20.08
2022-11-27T20:06:32.779Z,18.73
2022-11-27T20:09:02.240Z,20.02
2022-11-27T20:11:34.542Z,27.52
2022-11-27T20:14:05.179Z,41.17
2022-11-27T20:19:02.215Z,19.63
2022-11-27T20:21:29.177Z,19.40
2022-11-27T20:23:57.878Z,20.33
2022-11-27T20:26:27.288Z,20.83
2022-11-27T20:28:54.823Z,16.77
2022-11-27T20:31:25.035Z,18.42
2022-11-27T20:33:56.079Z,17.58
2022-11-27T20:36:24.899Z,17.85
2022-11-27T20:38:55.674Z,16.20
2022-11-27T20:41:24.202Z,17.67
2022-11-27T20:44:00.044Z,16.92
2022-11-27T20:46:29.295Z,16.17
2022-11-27T20:48:56.932Z,15.02
2022-11-27T20:51:28.566Z,32.63
2022-11-27T20:53:57.676Z,17.90
2022-11-27T20:56:25.671Z,17.30
2022-11-27T20:58:53.935Z,16.40
2022-11-27T21:01:26.336Z,18.48
2022-11-27T21:03:55.716Z,18.15
2022-11-27T21:06:27.254Z,13.57
2022-11-27T21:08:55.317Z,16.30
2022-11-27T21:11:25.829Z,17.17
2022-11-27T21:13:58.353Z,15.30
2022-11-27T21:16:27.704Z,18.05
2022-11-27T21:18:56.713Z,16.17
2022-11-27T21:21:24.085Z,15.93
2022-11-27T21:23:51.442Z,17.33
2022-11-27T21:26:18.917Z,16.52
2022-11-27T21:28:46.664Z,14.10
2022-11-27T21:31:17.303Z,17.00
2022-11-27T21:33:49.784Z,16.58
2022-11-27T21:36:17.759Z,15.98
2022-11-27T21:38:45.808Z,17.45
2022-11-27T21:41:14.081Z,17.38
2022-11-27T21:43:41.492Z,17.80
2022-11-27T21:46:17.856Z,17.27
2022-11-27T21:48:49.998Z,16.55
2022-11-27T21:51:21.069Z,17.75
2022-11-27T21:53:51.358Z,17.30
2022-11-27T21:56:20.904Z,18.35
2022-11-27T21:58:49.645Z,18.55
2022-11-27T22:01:22.105Z,15.77
2022-11-27T22:03:54.953Z,23.60
2022-11-27T22:06:24.943Z,22.40
2022-11-27T22:08:54.957Z,20.38
2022-11-27T22:11:24.776Z,20.83
2022-11-27T22:13:52.383Z,16.92
2022-11-27T22:16:25.904Z,22.95
2022-11-27T22:19:04.842Z,17.92
2022-11-27T22:21:33.234Z,18.58
2022-11-27T22:24:02.186Z,18.13
2022-11-27T22:26:29.564Z,16.67
2022-11-27T22:28:58.721Z,18.02
2022-11-27T22:31:31.209Z,18.45
2022-11-27T22:33:58.975Z,22.08
2022-11-27T22:36:30.726Z,19.52
2022-11-27T22:39:00.774Z,18.48
2022-11-27T22:41:29.676Z,18.65
2022-11-27T22:44:00.320Z,19.58
2022-11-27T22:46:35.513Z,20.67
2022-11-27T22:49:05.870Z,21.60
2022-11-27T22:51:35.713Z,19.05
2022-11-27T22:54:04.478Z,19.58
2022-11-27T22:56:33.872Z,21.60
2022-11-27T22:59:30.601Z,18.90
2022-11-27T23:01:49.812Z,20.70
2022-11-27T23:04:16.968Z,21.83
2022-11-27T23:06:48.608Z,21.10
2022-11-27T23:09:18.175Z,20.65
2022-11-27T23:11:45.438Z,19.40
2022-11-27T23:14:12.727Z,19.52
2022-11-27T23:16:39.761Z,25.33
2022-11-27T23:19:06.990Z,27.42
2022-11-27T23:21:37.415Z,25.30
2022-11-27T23:24:05.890Z,18.52
2022-11-27T23:26:32.945Z,20.15
2022-11-27T23:29:00.005Z,20.60
2022-11-27T23:31:31.512Z,15.15
2022-11-27T23:34:01.961Z,18.60
2022-11-27T23:36:31.457Z,18.00
2022-11-27T23:41:30.006Z,19.25
2022-11-27T23:43:58.135Z,19.23
2022-11-27T23:46:27.876Z,17.73
2022-11-27T23:48:57.461Z,20.15
2022-11-27T23:51:27.912Z,17.17
2022-11-27T23:53:55.182Z,17.40
2022-11-27T23:56:33.758Z,16.10
2022-11-27T23:59:07.203Z,17.23
